LTAC/ESB METAR and TAF weather

Enter ICAO airport designator
Station Type Date Time Source
LTAC METAR 2020/03/28 14:50 UTC NOAA

LTAC 281450Z 22010KT 9999 FEW015 BKN025 BKN100 10/06 Q1006 NOSIG


Station Type Date Time Source
LTAC Decoded METAR 2020/03/28 14:50 UTC NOAA

Ankara / Esenboga, Turkey (LTAC) 40-07N 032-59E 949M
Mar 28, 2020 - 10:50 AM EDT / 2020.03.28 1450 UTC
Wind: from the SW (220 degrees) at 12 MPH (10 KT):0
Visibility: greater than 7 mile(s):0
Sky conditions: mostly cloudy
Temperature: 50 F (10 C)
Dew Point: 42 F (6 C)
Relative Humidity: 76%
Pressure (altimeter): 29.71 in. Hg (1006 hPa)
ob: LTAC 281450Z 22010KT 9999 FEW015 BKN025 BKN100 10/06 Q1006 NOSIG
cycle: 15

Station Type Date Time Source
LTAC TAF 2020/03/28 12:03 UTC NOAA

TAF TAF LTAC 281040Z 2812/2912 VRB02KT 9999 SCT040 BKN100
TEMPO 2812/2816 -SHRA BKN025 BKN080
TEMPO 2906/2910 -SHRA BKN025 BKN080

Example: see airport list